sensor_id;sensor_type;location;lat;lon;timestamp;pressure;altitude;pressure_sealevel;temperature;humidity
72959;BME280;60008;50.826;6.896;2023-08-24T00:01:10;101163.59;;;19.17;100.00
72959;BME280;60008;50.826;6.896;2023-08-24T00:04:03;101156.78;;;19.14;100.00
72959;BME280;60008;50.826;6.896;2023-08-24T00:06:48;101162.16;;;19.14;100.00
72959;BME280;60008;50.826;6.896;2023-08-24T00:09:40;101158.22;;;19.03;100.00
72959;BME280;60008;50.826;6.896;2023-08-24T00:12:37;101152.44;;;19.00;100.00
72959;BME280;60008;50.826;6.896;2023-08-24T00:15:29;101152.00;;;18.90;100.00
72959;BME280;60008;50.826;6.896;2023-08-24T00:18:14;101145.81;;;18.83;100.00
72959;BME280;60008;50.826;6.896;2023-08-24T00:21:06;101151.38;;;18.81;100.00
72959;BME280;60008;50.826;6.896;2023-08-24T00:23:52;101141.88;;;18.79;100.00
72959;BME280;60008;50.826;6.896;2023-08-24T00:26:45;101153.66;;;18.84;100.00
72959;BME280;60008;50.826;6.896;2023-08-24T00:29:30;101158.41;;;18.82;100.00
72959;BME280;60008;50.826;6.896;2023-08-24T00:32:22;101158.81;;;18.79;100.00
72959;BME280;60008;50.826;6.896;2023-08-24T00:35:08;101155.72;;;18.82;100.00
72959;BME280;60008;50.826;6.896;2023-08-24T00:38:01;101149.75;;;18.80;100.00
72959;BME280;60008;50.826;6.896;2023-08-24T00:40:46;101146.44;;;18.85;100.00
72959;BME280;60008;50.826;6.896;2023-08-24T00:43:38;101149.50;;;18.75;100.00
72959;BME280;60008;50.826;6.896;2023-08-24T00:46:23;101160.84;;;18.71;100.00
72959;BME280;60008;50.826;6.896;2023-08-24T00:49:18;101153.19;;;18.61;100.00
72959;BME280;60008;50.826;6.896;2023-08-24T00:52:03;101151.94;;;18.51;100.00
72959;BME280;60008;50.826;6.896;2023-08-24T00:54:55;101148.81;;;18.54;100.00
72959;BME280;60008;50.826;6.896;2023-08-24T00:57:40;101134.59;;;18.53;100.00
72959;BME280;60008;50.826;6.896;2023-08-24T01:00:33;101132.88;;;18.45;100.00
72959;BME280;60008;50.826;6.896;2023-08-24T01:03:18;101133.53;;;18.54;100.00
72959;BME280;60008;50.826;6.896;2023-08-24T01:06:10;101135.00;;;18.50;100.00
72959;BME280;60008;50.826;6.896;2023-08-24T01:08:55;101131.28;;;18.58;100.00
72959;BME280;60008;50.826;6.896;2023-08-24T01:11:58;101135.66;;;18.59;100.00
72959;BME280;60008;50.826;6.896;2023-08-24T01:15:04;101137.88;;;18.49;100.00
72959;BME280;60008;50.826;6.896;2023-08-24T01:18:02;101138.66;;;18.42;100.00
72959;BME280;60008;50.826;6.896;2023-08-24T01:20:49;101143.81;;;18.44;100.00
72959;BME280;60008;50.826;6.896;2023-08-24T01:24:03;101141.38;;;18.49;100.00
72959;BME280;60008;50.826;6.896;2023-08-24T01:26:49;101141.13;;;18.44;100.00
72959;BME280;60008;50.826;6.896;2023-08-24T01:29:41;101135.72;;;18.37;100.00
72959;BME280;60008;50.826;6.896;2023-08-24T01:32:26;101142.53;;;18.33;100.00
72959;BME280;60008;50.826;6.896;2023-08-24T01:35:18;101134.84;;;18.24;100.00
72959;BME280;60008;50.826;6.896;2023-08-24T01:38:04;101127.81;;;18.16;100.00
72959;BME280;60008;50.826;6.896;2023-08-24T01:43:53;101124.13;;;18.24;100.00
72959;BME280;60008;50.826;6.896;2023-08-24T01:46:45;101119.63;;;18.31;100.00
72959;BME280;60008;50.826;6.896;2023-08-24T01:49:32;101113.81;;;18.27;100.00
72959;BME280;60008;50.826;6.896;2023-08-24T01:52:26;101116.72;;;18.32;100.00
72959;BME280;60008;50.826;6.896;2023-08-24T01:55:12;101110.53;;;18.25;100.00
72959;BME280;60008;50.826;6.896;2023-08-24T01:58:04;101105.56;;;18.22;100.00
72959;BME280;60008;50.826;6.896;2023-08-24T02:00:49;101101.63;;;18.25;100.00
72959;BME280;60008;50.826;6.896;2023-08-24T02:03:41;101094.81;;;18.22;100.00
72959;BME280;60008;50.826;6.896;2023-08-24T02:06:26;101089.81;;;18.13;100.00
72959;BME280;60008;50.826;6.896;2023-08-24T02:09:18;101086.97;;;18.14;100.00
72959;BME280;60008;50.826;6.896;2023-08-24T02:12:09;101082.81;;;18.12;100.00
72959;BME280;60008;50.826;6.896;2023-08-24T02:15:01;101081.81;;;18.19;100.00
72959;BME280;60008;50.826;6.896;2023-08-24T02:17:46;101086.34;;;18.12;100.00
72959;BME280;60008;50.826;6.896;2023-08-24T02:20:38;101087.75;;;18.08;100.00
72959;BME280;60008;50.826;6.896;2023-08-24T02:23:30;101076.22;;;18.14;100.00
72959;BME280;60008;50.826;6.896;2023-08-24T02:26:15;101068.78;;;18.16;100.00
72959;BME280;60008;50.826;6.896;2023-08-24T02:29:07;101066.50;;;18.13;100.00
72959;BME280;60008;50.826;6.896;2023-08-24T02:31:52;101061.75;;;18.09;100.00
72959;BME280;60008;50.826;6.896;2023-08-24T02:34:43;101072.50;;;18.09;100.00
72959;BME280;60008;50.826;6.896;2023-08-24T02:37:28;101064.41;;;18.02;100.00
72959;BME280;60008;50.826;6.896;2023-08-24T02:40:20;101067.16;;;18.15;100.00
72959;BME280;60008;50.826;6.896;2023-08-24T02:43:11;101066.94;;;18.17;100.00
72959;BME280;60008;50.826;6.896;2023-08-24T02:46:04;101063.03;;;18.19;100.00
72959;BME280;60008;50.826;6.896;2023-08-24T02:48:57;101061.63;;;18.36;100.00
72959;BME280;60008;50.826;6.896;2023-08-24T02:51:42;101068.03;;;18.42;100.00
72959;BME280;60008;50.826;6.896;2023-08-24T02:54:34;101067.66;;;18.52;100.00
72959;BME280;60008;50.826;6.896;2023-08-24T02:57:19;101081.94;;;18.59;100.00
72959;BME280;60008;50.826;6.896;2023-08-24T03:00:10;101072.25;;;18.64;100.00
72959;BME280;60008;50.826;6.896;2023-08-24T03:02:58;101062.94;;;18.67;100.00
72959;BME280;60008;50.826;6.896;2023-08-24T03:05:58;101062.09;;;18.73;100.00
72959;BME280;60008;50.826;6.896;2023-08-24T03:08:44;101061.28;;;18.79;100.00
72959;BME280;60008;50.826;6.896;2023-08-24T03:11:35;101062.34;;;18.78;100.00
72959;BME280;60008;50.826;6.896;2023-08-24T03:14:33;101056.75;;;18.66;100.00
72959;BME280;60008;50.826;6.896;2023-08-24T03:17:25;101056.13;;;18.71;100.00
72959;BME280;60008;50.826;6.896;2023-08-24T03:20:10;101069.34;;;18.79;100.00
72959;BME280;60008;50.826;6.896;2023-08-24T03:23:02;101059.66;;;18.78;100.00
72959;BME280;60008;50.826;6.896;2023-08-24T03:25:55;101061.72;;;18.82;100.00
72959;BME280;60008;50.826;6.896;2023-08-24T03:28:48;101070.38;;;18.84;100.00
72959;BME280;60008;50.826;6.896;2023-08-24T03:31:33;101077.00;;;18.88;100.00
72959;BME280;60008;50.826;6.896;2023-08-24T03:34:25;101083.41;;;18.87;100.00
72959;BME280;60008;50.826;6.896;2023-08-24T03:37:12;101081.75;;;18.86;100.00
72959;BME280;60008;50.826;6.896;2023-08-24T03:40:05;101107.19;;;18.90;100.00
72959;BME280;60008;50.826;6.896;2023-08-24T03:42:58;101115.00;;;18.92;100.00
72959;BME280;60008;50.826;6.896;2023-08-24T03:45:50;101125.13;;;18.83;100.00
72959;BME280;60008;50.826;6.896;2023-08-24T03:48:35;101130.50;;;18.83;100.00
72959;BME280;60008;50.826;6.896;2023-08-24T03:51:27;101134.03;;;18.90;100.00
72959;BME280;60008;50.826;6.896;2023-08-24T03:54:19;101144.16;;;18.95;100.00
72959;BME280;60008;50.826;6.896;2023-08-24T03:57:11;101152.81;;;18.97;100.00
72959;BME280;60008;50.826;6.896;2023-08-24T03:59:56;101155.31;;;18.98;100.00
72959;BME280;60008;50.826;6.896;2023-08-24T04:02:48;101150.56;;;19.00;100.00
72959;BME280;60008;50.826;6.896;2023-08-24T04:05:33;101148.28;;;18.97;100.00
72959;BME280;60008;50.826;6.896;2023-08-24T04:08:25;101143.56;;;18.99;100.00
72959;BME280;60008;50.826;6.896;2023-08-24T04:11:17;101134.25;;;19.02;100.00
72959;BME280;60008;50.826;6.896;2023-08-24T04:14:15;101127.03;;;18.96;100.00
72959;BME280;60008;50.826;6.896;2023-08-24T04:17:07;101124.13;;;19.04;100.00
72959;BME280;60008;50.826;6.896;2023-08-24T04:19:59;101116.69;;;19.06;100.00
72959;BME280;60008;50.826;6.896;2023-08-24T04:22:51;101124.09;;;19.11;100.00
72959;BME280;60008;50.826;6.896;2023-08-24T04:25:39;101137.34;;;19.12;100.00
72959;BME280;60008;50.826;6.896;2023-08-24T04:28:31;101140.66;;;19.14;100.00
72959;BME280;60008;50.826;6.896;2023-08-24T04:31:16;101140.88;;;19.13;100.00
72959;BME280;60008;50.826;6.896;2023-08-24T04:34:07;101126.00;;;19.10;100.00
72959;BME280;60008;50.826;6.896;2023-08-24T04:36:52;101123.91;;;18.99;100.00
72959;BME280;60008;50.826;6.896;2023-08-24T04:39:43;101118.75;;;18.91;100.00
72959;BME280;60008;50.826;6.896;2023-08-24T04:42:28;101097.25;;;18.91;100.00
72959;BME280;60008;50.826;6.896;2023-08-24T04:45:20;101082.97;;;18.84;100.00
72959;BME280;60008;50.826;6.896;2023-08-24T04:48:05;101069.56;;;18.77;100.00
72959;BME280;60008;50.826;6.896;2023-08-24T04:50:57;101074.66;;;18.39;100.00
72959;BME280;60008;50.826;6.896;2023-08-24T04:53:49;101093.50;;;18.53;100.00
72959;BME280;60008;50.826;6.896;2023-08-24T04:56:41;101094.31;;;18.53;100.00
72959;BME280;60008;50.826;6.896;2023-08-24T04:59:26;101089.53;;;18.42;100.00
72959;BME280;60008;50.826;6.896;2023-08-24T05:02:18;101103.13;;;18.40;100.00
72959;BME280;60008;50.826;6.896;2023-08-24T05:05:03;101111.97;;;18.34;100.00
72959;BME280;60008;50.826;6.896;2023-08-24T05:07:55;101116.69;;;18.19;100.00
72959;BME280;60008;50.826;6.896;2023-08-24T05:10:47;101109.66;;;18.18;100.00
72959;BME280;60008;50.826;6.896;2023-08-24T05:13:40;101105.47;;;18.03;100.00
72959;BME280;60008;50.826;6.896;2023-08-24T05:16:31;101095.34;;;17.98;100.00
72959;BME280;60008;50.826;6.896;2023-08-24T05:19:23;101062.50;;;17.90;100.00
72959;BME280;60008;50.826;6.896;2023-08-24T05:22:14;101037.53;;;17.82;100.00
72959;BME280;60008;50.826;6.896;2023-08-24T05:24:59;101045.19;;;17.92;100.00
72959;BME280;60008;50.826;6.896;2023-08-24T05:27:51;101060.28;;;18.00;100.00
72959;BME280;60008;50.826;6.896;2023-08-24T05:30:36;101051.88;;;18.16;100.00
72959;BME280;60008;50.826;6.896;2023-08-24T05:33:28;101032.88;;;18.11;100.00
72959;BME280;60008;50.826;6.896;2023-08-24T05:36:16;101045.09;;;18.33;100.00
72959;BME280;60008;50.826;6.896;2023-08-24T05:39:07;101046.34;;;18.30;100.00
72959;BME280;60008;50.826;6.896;2023-08-24T05:41:59;101047.16;;;18.37;100.00
72959;BME280;60008;50.826;6.896;2023-08-24T05:44:51;101042.03;;;18.42;100.00
72959;BME280;60008;50.826;6.896;2023-08-24T05:47:36;101029.91;;;18.53;100.00
72959;BME280;60008;50.826;6.896;2023-08-24T05:50:28;101028.22;;;18.52;100.00
72959;BME280;60008;50.826;6.896;2023-08-24T05:53:13;101026.78;;;18.63;100.00
72959;BME280;60008;50.826;6.896;2023-08-24T05:56:05;101023.91;;;18.64;100.00
72959;BME280;60008;50.826;6.896;2023-08-24T05:58:50;101016.25;;;18.68;100.00
72959;BME280;60008;50.826;6.896;2023-08-24T06:01:42;101014.81;;;18.65;100.00
72959;BME280;60008;50.826;6.896;2023-08-24T06:04:34;101023.06;;;18.57;100.00
72959;BME280;60008;50.826;6.896;2023-08-24T06:07:19;101016.47;;;18.66;100.00
72959;BME280;60008;50.826;6.896;2023-08-24T06:10:17;101005.94;;;18.71;100.00
72959;BME280;60008;50.826;6.896;2023-08-24T06:13:17;100995.19;;;18.71;100.00
72959;BME280;60008;50.826;6.896;2023-08-24T06:16:09;101009.03;;;18.88;100.00
72959;BME280;60008;50.826;6.896;2023-08-24T06:18:54;101012.53;;;18.88;100.00
72959;BME280;60008;50.826;6.896;2023-08-24T06:21:46;100993.72;;;19.01;100.00
72959;BME280;60008;50.826;6.896;2023-08-24T06:24:38;100994.94;;;19.12;100.00
72959;BME280;60008;50.826;6.896;2023-08-24T06:27:23;100991.19;;;19.20;100.00
72959;BME280;60008;50.826;6.896;2023-08-24T06:30:14;100988.09;;;19.29;100.00
72959;BME280;60008;50.826;6.896;2023-08-24T06:32:59;100977.91;;;19.44;100.00
72959;BME280;60008;50.826;6.896;2023-08-24T06:35:50;100973.16;;;19.46;100.00
72959;BME280;60008;50.826;6.896;2023-08-24T06:38:35;100975.16;;;19.57;100.00
72959;BME280;60008;50.826;6.896;2023-08-24T06:41:27;100954.50;;;19.58;100.00
72959;BME280;60008;50.826;6.896;2023-08-24T06:44:12;100962.06;;;19.74;100.00
72959;BME280;60008;50.826;6.896;2023-08-24T06:47:04;100955.16;;;19.91;100.00
72959;BME280;60008;50.826;6.896;2023-08-24T06:49:50;100948.00;;;20.10;100.00
72959;BME280;60008;50.826;6.896;2023-08-24T06:52:42;100955.31;;;19.96;100.00
72959;BME280;60008;50.826;6.896;2023-08-24T06:55:34;100941.22;;;20.01;100.00
72959;BME280;60008;50.826;6.896;2023-08-24T06:58:19;100930.69;;;19.99;100.00
72959;BME280;60008;50.826;6.896;2023-08-24T07:01:11;100918.47;;;19.97;100.00
72959;BME280;60008;50.826;6.896;2023-08-24T07:03:56;100914.41;;;20.19;100.00
72959;BME280;60008;50.826;6.896;2023-08-24T07:06:48;100918.88;;;20.32;100.00
72959;BME280;60008;50.826;6.896;2023-08-24T07:09:40;100911.53;;;20.39;100.00
72959;BME280;60008;50.826;6.896;2023-08-24T07:12:32;100903.09;;;20.35;100.00
72959;BME280;60008;50.826;6.896;2023-08-24T07:15:24;100899.91;;;20.45;100.00
72959;BME280;60008;50.826;6.896;2023-08-24T07:18:09;100893.34;;;20.59;100.00
72959;BME280;60008;50.826;6.896;2023-08-24T07:21:01;100892.91;;;20.62;100.00
72959;BME280;60008;50.826;6.896;2023-08-24T07:23:46;100880.28;;;20.62;100.00
72959;BME280;60008;50.826;6.896;2023-08-24T07:26:37;100878.13;;;20.89;100.00
72959;BME280;60008;50.826;6.896;2023-08-24T07:29:22;100882.50;;;21.02;100.00
72959;BME280;60008;50.826;6.896;2023-08-24T07:32:14;100883.09;;;21.04;100.00
72959;BME280;60008;50.826;6.896;2023-08-24T07:34:59;100891.69;;;21.19;100.00
72959;BME280;60008;50.826;6.896;2023-08-24T07:37:51;100873.03;;;21.47;100.00
72959;BME280;60008;50.826;6.896;2023-08-24T07:40:43;100878.28;;;21.72;100.00
72959;BME280;60008;50.826;6.896;2023-08-24T07:43:34;100865.75;;;21.77;100.00
72959;BME280;60008;50.826;6.896;2023-08-24T07:46:19;100871.59;;;21.92;100.00
72959;BME280;60008;50.826;6.896;2023-08-24T07:49:10;100862.69;;;22.04;100.00
72959;BME280;60008;50.826;6.896;2023-08-24T07:52:01;100862.72;;;22.38;100.00
72959;BME280;60008;50.826;6.896;2023-08-24T07:54:52;100866.72;;;22.36;100.00
72959;BME280;60008;50.826;6.896;2023-08-24T07:57:37;100868.03;;;22.68;100.00
72959;BME280;60008;50.826;6.896;2023-08-24T08:00:29;100873.53;;;22.73;100.00
72959;BME280;60008;50.826;6.896;2023-08-24T08:03:21;100876.69;;;22.82;100.00
72959;BME280;60008;50.826;6.896;2023-08-24T08:06:06;100866.56;;;22.89;100.00
72959;BME280;60008;50.826;6.896;2023-08-24T08:08:58;100858.50;;;23.17;100.00
72959;BME280;60008;50.826;6.896;2023-08-24T08:11:43;100847.16;;;23.43;100.00
72959;BME280;60008;50.826;6.896;2023-08-24T08:14:35;100840.81;;;23.66;100.00
72959;BME280;60008;50.826;6.896;2023-08-24T08:17:27;100833.31;;;23.56;100.00
72959;BME280;60008;50.826;6.896;2023-08-24T08:20:14;100838.88;;;25.53;100.00
72959;BME280;60008;50.826;6.896;2023-08-24T08:23:05;100833.84;;;26.25;100.00
72959;BME280;60008;50.826;6.896;2023-08-24T08:25:50;100831.19;;;27.74;100.00
72959;BME280;60008;50.826;6.896;2023-08-24T08:28:42;100832.28;;;29.18;100.00
72959;BME280;60008;50.826;6.896;2023-08-24T08:31:27;100846.72;;;26.92;100.00
72959;BME280;60008;50.826;6.896;2023-08-24T08:34:19;100830.91;;;27.66;100.00
72959;BME280;60008;50.826;6.896;2023-08-24T08:37:11;100823.53;;;27.97;100.00
72959;BME280;60008;50.826;6.896;2023-08-24T08:40:04;100815.13;;;29.51;98.80
72959;BME280;60008;50.826;6.896;2023-08-24T08:42:57;100817.84;;;27.93;100.00
72959;BME280;60008;50.826;6.896;2023-08-24T08:45:43;100810.44;;;26.66;100.00
72959;BME280;60008;50.826;6.896;2023-08-24T08:48:36;100805.47;;;28.66;100.00
72959;BME280;60008;50.826;6.896;2023-08-24T08:51:29;100807.75;;;28.19;100.00
72959;BME280;60008;50.826;6.896;2023-08-24T08:54:14;100799.00;;;28.37;100.00
72959;BME280;60008;50.826;6.896;2023-08-24T08:57:06;100797.75;;;29.42;100.00
72959;BME280;60008;50.826;6.896;2023-08-24T08:59:52;100793.03;;;29.04;95.83
72959;BME280;60008;50.826;6.896;2023-08-24T09:02:45;100774.06;;;28.74;100.00
72959;BME280;60008;50.826;6.896;2023-08-24T09:05:31;100778.69;;;30.52;100.00
72959;BME280;60008;50.826;6.896;2023-08-24T09:08:25;100766.56;;;29.82;95.14
72959;BME280;60008;50.826;6.896;2023-08-24T09:11:10;100761.59;;;28.48;97.39
72959;BME280;60008;50.826;6.896;2023-08-24T09:14:02;100741.09;;;30.16;94.88
72959;BME280;60008;50.826;6.896;2023-08-24T09:16:53;100741.88;;;30.87;92.11
72959;BME280;60008;50.826;6.896;2023-08-24T09:19:45;100728.19;;;30.45;88.83
72959;BME280;60008;50.826;6.896;2023-08-24T09:22:34;100721.06;;;30.67;88.46
72959;BME280;60008;50.826;6.896;2023-08-24T09:25:26;100706.72;;;28.69;93.53
72959;BME280;60008;50.826;6.896;2023-08-24T09:28:12;100704.53;;;30.54;87.52
72959;BME280;60008;50.826;6.896;2023-08-24T09:31:03;100692.63;;;31.06;87.72
72959;BME280;60008;50.826;6.896;2023-08-24T09:33:48;100687.28;;;30.11;87.44
72959;BME280;60008;50.826;6.896;2023-08-24T09:36:40;100678.31;;;31.09;81.98
72959;BME280;60008;50.826;6.896;2023-08-24T09:39:25;100678.84;;;31.89;84.51
72959;BME280;60008;50.826;6.896;2023-08-24T09:42:24;100677.19;;;31.10;82.56
72959;BME280;60008;50.826;6.896;2023-08-24T09:45:13;100685.25;;;28.48;90.37
72959;BME280;60008;50.826;6.896;2023-08-24T09:48:05;100694.97;;;29.80;89.26
72959;BME280;60008;50.826;6.896;2023-08-24T09:50:51;100700.59;;;29.94;82.81
72959;BME280;60008;50.826;6.896;2023-08-24T09:53:44;100699.41;;;29.42;85.18
72959;BME280;60008;50.826;6.896;2023-08-24T09:56:29;100702.25;;;29.61;83.91
72959;BME280;60008;50.826;6.896;2023-08-24T09:59:21;100703.50;;;29.01;86.03
72959;BME280;60008;50.826;6.896;2023-08-24T10:02:16;100712.22;;;29.03;88.75
72959;BME280;60008;50.826;6.896;2023-08-24T10:05:09;100711.91;;;29.10;88.72
72959;BME280;60008;50.826;6.896;2023-08-24T10:08:14;100711.56;;;28.77;87.32
72959;BME280;60008;50.826;6.896;2023-08-24T10:11:17;100701.03;;;28.56;90.64
72959;BME280;60008;50.826;6.896;2023-08-24T10:14:16;100713.22;;;28.04;99.32
72959;BME280;60008;50.826;6.896;2023-08-24T10:17:04;100723.91;;;28.55;96.12
72959;BME280;60008;50.826;6.896;2023-08-24T10:19:58;100723.88;;;28.75;95.91
72959;BME280;60008;50.826;6.896;2023-08-24T10:22:47;100714.72;;;29.00;94.78
72959;BME280;60008;50.826;6.896;2023-08-24T10:25:39;100720.19;;;28.35;95.54
72959;BME280;60008;50.826;6.896;2023-08-24T10:28:26;100735.00;;;27.99;100.00
72959;BME280;60008;50.826;6.896;2023-08-24T10:31:17;100735.72;;;28.40;95.00
72959;BME280;60008;50.826;6.896;2023-08-24T10:34:05;100737.53;;;28.70;93.72
72959;BME280;60008;50.826;6.896;2023-08-24T10:36:57;100741.44;;;28.44;93.61
72959;BME280;60008;50.826;6.896;2023-08-24T10:39:46;100748.63;;;28.09;94.54
72959;BME280;60008;50.826;6.896;2023-08-24T10:42:45;100741.75;;;28.22;89.52
72959;BME280;60008;50.826;6.896;2023-08-24T10:45:59;100745.84;;;28.24;94.75
72959;BME280;60008;50.826;6.896;2023-08-24T10:48:58;100735.53;;;28.01;91.36
72959;BME280;60008;50.826;6.896;2023-08-24T10:51:44;100732.53;;;28.03;95.77
72959;BME280;60008;50.826;6.896;2023-08-24T10:54:42;100733.38;;;27.88;95.85
72959;BME280;60008;50.826;6.896;2023-08-24T10:57:38;100730.91;;;27.92;93.16
72959;BME280;60008;50.826;6.896;2023-08-24T11:00:31;100733.63;;;27.87;92.75
72959;BME280;60008;50.826;6.896;2023-08-24T11:03:30;100717.00;;;28.03;92.21
72959;BME280;60008;50.826;6.896;2023-08-24T11:06:24;100714.59;;;27.76;95.45
72959;BME280;60008;50.826;6.896;2023-08-24T11:09:09;100719.50;;;27.64;96.19
72959;BME280;60008;50.826;6.896;2023-08-24T11:12:05;100712.16;;;27.60;94.11
72959;BME280;60008;50.826;6.896;2023-08-24T11:15:09;100712.97;;;27.40;95.19
72959;BME280;60008;50.826;6.896;2023-08-24T11:18:14;100715.91;;;27.13;97.59
72959;BME280;60008;50.826;6.896;2023-08-24T11:21:02;100711.31;;;27.59;95.12
72959;BME280;60008;50.826;6.896;2023-08-24T11:23:55;100715.13;;;27.33;100.00
72959;BME280;60008;50.826;6.896;2023-08-24T11:26:43;100706.38;;;27.16;97.67
72959;BME280;60008;50.826;6.896;2023-08-24T11:29:35;100724.34;;;27.12;100.00
72959;BME280;60008;50.826;6.896;2023-08-24T11:32:20;100725.72;;;27.19;100.00
72959;BME280;60008;50.826;6.896;2023-08-24T11:35:12;100727.31;;;27.10;100.00
72959;BME280;60008;50.826;6.896;2023-08-24T11:37:58;100736.03;;;27.02;100.00
72959;BME280;60008;50.826;6.896;2023-08-24T11:40:49;100754.09;;;26.67;100.00
72959;BME280;60008;50.826;6.896;2023-08-24T11:43:34;100764.91;;;26.46;100.00
72959;BME280;60008;50.826;6.896;2023-08-24T11:46:28;100788.91;;;26.59;100.00
72959;BME280;60008;50.826;6.896;2023-08-24T11:49:14;100795.09;;;26.50;100.00
72959;BME280;60008;50.826;6.896;2023-08-24T11:52:05;100798.19;;;26.69;100.00
72959;BME280;60008;50.826;6.896;2023-08-24T11:55:01;100791.47;;;26.86;100.00
72959;BME280;60008;50.826;6.896;2023-08-24T11:57:46;100785.53;;;26.99;100.00
72959;BME280;60008;50.826;6.896;2023-08-24T12:00:37;100781.44;;;26.87;100.00
72959;BME280;60008;50.826;6.896;2023-08-24T12:03:23;100789.06;;;26.90;100.00
72959;BME280;60008;50.826;6.896;2023-08-24T12:06:16;100784.69;;;26.89;100.00
72959;BME280;60008;50.826;6.896;2023-08-24T12:09:04;100782.78;;;26.89;100.00
72959;BME280;60008;50.826;6.896;2023-08-24T12:11:56;100785.06;;;26.55;100.00
72959;BME280;60008;50.826;6.896;2023-08-24T12:14:55;100776.25;;;26.33;100.00
72959;BME280;60008;50.826;6.896;2023-08-24T12:17:47;100774.09;;;26.35;100.00
72959;BME280;60008;50.826;6.896;2023-08-24T12:20:42;100765.13;;;26.40;100.00
72959;BME280;60008;50.826;6.896;2023-08-24T12:23:34;100775.25;;;26.08;100.00
72959;BME280;60008;50.826;6.896;2023-08-24T12:26:19;100774.03;;;25.88;100.00
72959;BME280;60008;50.826;6.896;2023-08-24T12:29:11;100782.19;;;25.30;100.00
72959;BME280;60008;50.826;6.896;2023-08-24T12:31:57;100771.75;;;24.95;100.00
72959;BME280;60008;50.826;6.896;2023-08-24T12:34:49;100783.50;;;24.62;100.00
72959;BME280;60008;50.826;6.896;2023-08-24T12:37:37;100782.47;;;24.25;100.00
72959;BME280;60008;50.826;6.896;2023-08-24T12:40:29;100778.03;;;24.19;100.00
72959;BME280;60008;50.826;6.896;2023-08-24T12:43:14;100763.69;;;24.02;100.00
72959;BME280;60008;50.826;6.896;2023-08-24T12:46:06;100758.28;;;24.02;100.00
72959;BME280;60008;50.826;6.896;2023-08-24T12:48:51;100743.44;;;23.88;100.00
72959;BME280;60008;50.826;6.896;2023-08-24T12:51:43;100719.00;;;23.66;100.00
72959;BME280;60008;50.826;6.896;2023-08-24T12:54:28;100709.72;;;23.79;100.00
72959;BME280;60008;50.826;6.896;2023-08-24T12:57:19;100701.38;;;23.63;100.00
72959;BME280;60008;50.826;6.896;2023-08-24T13:00:04;100694.38;;;23.51;100.00
72959;BME280;60008;50.826;6.896;2023-08-24T13:02:57;100685.56;;;23.39;100.00
72959;BME280;60008;50.826;6.896;2023-08-24T13:05:42;100696.75;;;23.31;100.00
72959;BME280;60008;50.826;6.896;2023-08-24T13:08:34;100694.19;;;23.24;100.00
72959;BME280;60008;50.826;6.896;2023-08-24T13:11:26;100679.63;;;23.25;100.00
72959;BME280;60008;50.826;6.896;2023-08-24T13:14:31;100656.19;;;23.31;100.00
72959;BME280;60008;50.826;6.896;2023-08-24T13:17:16;100630.47;;;23.45;100.00
72959;BME280;60008;50.826;6.896;2023-08-24T13:20:08;100617.34;;;23.53;100.00
72959;BME280;60008;50.826;6.896;2023-08-24T13:22:54;100616.88;;;23.40;100.00
72959;BME280;60008;50.826;6.896;2023-08-24T13:25:45;100613.88;;;23.58;100.00
72959;BME280;60008;50.826;6.896;2023-08-24T13:28:30;100623.31;;;23.55;100.00
72959;BME280;60008;50.826;6.896;2023-08-24T13:31:22;100633.75;;;23.47;100.00
72959;BME280;60008;50.826;6.896;2023-08-24T13:34:07;100595.84;;;23.47;100.00
72959;BME280;60008;50.826;6.896;2023-08-24T13:37:00;100581.28;;;23.48;100.00
72959;BME280;60008;50.826;6.896;2023-08-24T13:39:45;100603.63;;;23.43;100.00
72959;BME280;60008;50.826;6.896;2023-08-24T13:42:36;100621.69;;;23.38;100.00
72959;BME280;60008;50.826;6.896;2023-08-24T13:45:21;100628.31;;;23.63;100.00
72959;BME280;60008;50.826;6.896;2023-08-24T13:48:13;100613.53;;;23.71;100.00
72959;BME280;60008;50.826;6.896;2023-08-24T13:50:59;100595.28;;;23.83;100.00
72959;BME280;60008;50.826;6.896;2023-08-24T13:53:50;100597.72;;;24.06;100.00
72959;BME280;60008;50.826;6.896;2023-08-24T13:56:44;100599.47;;;24.12;100.00
72959;BME280;60008;50.826;6.896;2023-08-24T13:59:35;100586.16;;;24.11;100.00
72959;BME280;60008;50.826;6.896;2023-08-24T14:02:20;100571.38;;;24.18;100.00
72959;BME280;60008;50.826;6.896;2023-08-24T14:05:11;100602.59;;;23.83;100.00
72959;BME280;60008;50.826;6.896;2023-08-24T14:07:58;100645.84;;;23.61;100.00
72959;BME280;60008;50.826;6.896;2023-08-24T14:10:49;100673.75;;;23.61;100.00
72959;BME280;60008;50.826;6.896;2023-08-24T14:13:34;100685.28;;;23.57;100.00
72959;BME280;60008;50.826;6.896;2023-08-24T14:16:33;100682.09;;;23.43;100.00
72959;BME280;60008;50.826;6.896;2023-08-24T14:19:18;100698.09;;;23.45;100.00
72959;BME280;60008;50.826;6.896;2023-08-24T14:22:10;100717.56;;;23.30;100.00
72959;BME280;60008;50.826;6.896;2023-08-24T14:24:55;100715.59;;;23.26;100.00
72959;BME280;60008;50.826;6.896;2023-08-24T14:27:47;100728.66;;;23.29;100.00
72959;BME280;60008;50.826;6.896;2023-08-24T14:30:50;100733.09;;;23.06;100.00
72959;BME280;60008;50.826;6.896;2023-08-24T14:33:42;100744.97;;;23.05;100.00
72959;BME280;60008;50.826;6.896;2023-08-24T14:36:28;100755.44;;;22.74;100.00
72959;BME280;60008;50.826;6.896;2023-08-24T14:39:19;100762.53;;;22.40;100.00
72959;BME280;60008;50.826;6.896;2023-08-24T14:42:04;100757.38;;;22.27;100.00